createdAt,value
2022-10-15T00:01:33.814Z,12.80
2022-10-15T00:07:01.677Z,12.80
2022-10-15T00:12:29.546Z,12.70
2022-10-15T00:17:58.226Z,12.70
2022-10-15T00:23:26.134Z,12.70
2022-10-15T00:28:58.540Z,12.70
2022-10-15T00:34:26.338Z,12.70
2022-10-15T00:39:54.139Z,12.60
2022-10-15T00:45:22.322Z,12.60
2022-10-15T00:50:50.170Z,12.60
2022-10-15T00:56:22.658Z,12.60
2022-10-15T01:01:50.775Z,12.50
2022-10-15T01:07:18.762Z,12.50
2022-10-15T01:13:15.436Z,12.50
2022-10-15T01:18:57.527Z,12.50
2022-10-15T01:24:53.205Z,12.50
2022-10-15T01:30:45.522Z,12.50
2022-10-15T01:36:34.695Z,12.50
2022-10-15T01:42:29.581Z,12.50
2022-10-15T01:48:04.898Z,12.50
2022-10-15T01:53:35.387Z,12.50
2022-10-15T01:59:05.906Z,12.50
2022-10-15T02:04:33.936Z,12.50
2022-10-15T02:10:23.350Z,12.50
2022-10-15T02:16:25.847Z,12.50
2022-10-15T02:22:09.353Z,12.50
2022-10-15T02:27:39.391Z,12.50
2022-10-15T02:33:08.453Z,12.50
2022-10-15T02:38:38.491Z,12.50
2022-10-15T02:44:06.835Z,12.50
2022-10-15T02:49:34.616Z,12.50
2022-10-15T02:55:04.187Z,12.50
2022-10-15T03:00:32.205Z,12.50
2022-10-15T03:06:00.345Z,12.60
2022-10-15T03:11:28.886Z,12.60
2022-10-15T03:16:56.683Z,12.60
2022-10-15T03:22:24.756Z,12.70
2022-10-15T03:27:54.549Z,12.70
2022-10-15T03:33:28.758Z,12.70
2022-10-15T03:38:57.075Z,12.70
2022-10-15T03:44:25.152Z,12.70
2022-10-15T03:50:04.915Z,12.70
2022-10-15T03:55:33.495Z,12.70
2022-10-15T04:01:01.843Z,12.80
2022-10-15T04:06:29.703Z,12.80
2022-10-15T04:12:04.287Z,12.80
2022-10-15T04:17:32.189Z,12.80
2022-10-15T04:23:00.040Z,12.90
2022-10-15T04:28:29.705Z,12.90
2022-10-15T04:33:57.517Z,12.90
2022-10-15T04:39:25.718Z,13.00
2022-10-15T04:44:53.546Z,13.00
2022-10-15T04:50:21.426Z,13.10
2022-10-15T04:56:20.750Z,13.10
2022-10-15T05:01:48.665Z,13.20
2022-10-15T05:07:16.625Z,13.30
2022-10-15T05:12:45.008Z,13.40
2022-10-15T05:18:13.243Z,13.50
2022-10-15T05:23:52.408Z,13.60
2022-10-15T05:29:35.143Z,13.70
2022-10-15T05:35:02.987Z,13.70
2022-10-15T05:40:50.669Z,13.80
2022-10-15T05:46:22.656Z,13.80
2022-10-15T05:51:50.580Z,13.90
2022-10-15T05:57:33.323Z,13.90
2022-10-15T06:03:04.750Z,14.00
2022-10-15T06:08:32.783Z,14.00
2022-10-15T06:14:00.627Z,14.10
2022-10-15T06:19:28.443Z,14.10
2022-10-15T06:24:56.495Z,14.20
2022-10-15T06:30:26.272Z,14.20
2022-10-15T06:35:54.258Z,14.30
2022-10-15T06:41:22.234Z,14.30
2022-10-15T06:46:50.041Z,14.30
2022-10-15T06:52:17.938Z,14.30
2022-10-15T06:57:45.872Z,14.30
2022-10-15T07:03:17.758Z,14.30
2022-10-15T07:08:45.999Z,14.40
2022-10-15T07:14:13.748Z,14.40
2022-10-15T07:19:41.472Z,14.50
2022-10-15T07:25:12.757Z,14.50
2022-10-15T07:30:40.898Z,14.60
2022-10-15T07:36:12.845Z,14.60
2022-10-15T07:41:42.174Z,14.70
2022-10-15T07:47:09.982Z,14.80
2022-10-15T07:52:37.926Z,14.80
2022-10-15T07:58:08.253Z,14.80
2022-10-15T08:03:37.286Z,14.70
2022-10-15T08:09:06.053Z,14.70
2022-10-15T08:14:37.507Z,14.70
2022-10-15T08:20:06.699Z,14.80
2022-10-15T08:25:34.472Z,14.80
2022-10-15T08:31:05.629Z,14.80
2022-10-15T08:36:36.320Z,14.80
2022-10-15T08:42:12.392Z,14.90
2022-10-15T08:47:50.314Z,14.90
2022-10-15T08:53:23.024Z,14.80
2022-10-15T08:59:02.801Z,14.80
2022-10-15T09:04:47.452Z,14.80
2022-10-15T09:10:47.644Z,14.80
2022-10-15T09:16:28.922Z,14.80
2022-10-15T09:21:57.650Z,14.90
2022-10-15T09:27:37.014Z,15.10
2022-10-15T09:33:16.283Z,15.20
2022-10-15T09:39:06.114Z,15.40
2022-10-15T09:44:41.380Z,15.60
2022-10-15T09:50:13.501Z,15.70
2022-10-15T09:56:06.019Z,15.90
2022-10-15T10:01:34.892Z,16.10
2022-10-15T10:07:09.894Z,16.20
2022-10-15T10:12:38.052Z,16.30
2022-10-15T10:18:06.794Z,16.50
2022-10-15T10:23:36.882Z,16.70
2022-10-15T10:29:15.755Z,16.90
2022-10-15T10:34:55.115Z,17.30
2022-10-15T10:40:30.060Z,17.60
2022-10-15T10:46:05.520Z,17.90
2022-10-15T10:51:49.931Z,18.20
2022-10-15T10:57:23.728Z,18.40
2022-10-15T11:02:52.989Z,18.50
2022-10-15T11:08:56.240Z,18.60
2022-10-15T11:14:57.937Z,18.70
2022-10-15T11:21:13.934Z,18.60
2022-10-15T11:27:21.659Z,18.70
2022-10-15T11:33:30.858Z,18.60
2022-10-15T11:39:21.683Z,18.50
2022-10-15T11:45:04.383Z,18.60
2022-10-15T11:50:45.726Z,18.70
2022-10-15T11:56:36.492Z,18.80
2022-10-15T12:02:22.980Z,19.00
2022-10-15T12:07:50.962Z,19.00
2022-10-15T12:13:48.420Z,19.00
2022-10-15T12:19:23.900Z,19.30
2022-10-15T12:24:56.339Z,19.30
2022-10-15T12:30:29.855Z,19.40
2022-10-15T12:36:21.471Z,19.50
2022-10-15T12:41:50.522Z,19.30
2022-10-15T12:47:50.333Z,19.30
2022-10-15T12:53:29.920Z,19.40
2022-10-15T12:58:57.801Z,20.20
2022-10-15T13:04:38.358Z,21.10
2022-10-15T13:11:02.868Z,21.70
2022-10-15T13:16:31.449Z,22.20
2022-10-15T13:22:03.406Z,22.70
2022-10-15T13:27:40.041Z,22.90
2022-10-15T13:33:10.653Z,22.60
2022-10-15T13:38:41.914Z,22.40
2022-10-15T13:44:25.393Z,21.70
2022-10-15T13:50:24.088Z,21.10
2022-10-15T13:55:55.594Z,22.30
2022-10-15T14:01:25.534Z,23.80
2022-10-15T14:07:03.747Z,24.60
2022-10-15T14:12:31.686Z,25.20
2022-10-15T14:18:00.362Z,24.60
2022-10-15T14:23:28.774Z,22.90
2022-10-15T14:28:57.461Z,21.80
2022-10-15T14:34:45.565Z,21.00
2022-10-15T14:40:18.804Z,20.50
2022-10-15T14:46:00.324Z,20.40
2022-10-15T14:51:33.386Z,20.20
2022-10-15T14:57:01.828Z,19.80
2022-10-15T15:02:30.200Z,19.50
2022-10-15T15:07:59.428Z,19.40
2022-10-15T15:13:32.745Z,19.50
2022-10-15T15:19:00.606Z,19.30
2022-10-15T15:24:28.409Z,19.20
2022-10-15T15:29:58.570Z,19.10
2022-10-15T15:35:50.786Z,18.90
2022-10-15T15:41:21.520Z,18.80
2022-10-15T15:46:51.502Z,18.60
2022-10-15T15:52:19.250Z,18.50
2022-10-15T15:57:47.363Z,18.40
2022-10-15T16:03:15.486Z,18.30
2022-10-15T16:08:43.262Z,18.10
2022-10-15T16:14:12.071Z,18.00
2022-10-15T16:19:39.940Z,17.90
2022-10-15T16:25:09.338Z,17.80
2022-10-15T16:30:37.718Z,17.60
2022-10-15T16:36:06.196Z,17.50
2022-10-15T16:41:33.963Z,17.50
2022-10-15T16:47:02.095Z,17.40
2022-10-15T16:52:29.984Z,17.30
2022-10-15T16:57:57.819Z,17.20
2022-10-15T17:03:25.775Z,17.20
2022-10-15T17:08:58.664Z,17.10
2022-10-15T17:14:26.623Z,17.00
2022-10-15T17:19:54.468Z,16.90
2022-10-15T17:25:22.259Z,16.80
2022-10-15T17:30:50.124Z,16.80
2022-10-15T17:36:22.293Z,16.70
2022-10-15T17:41:51.998Z,16.60
2022-10-15T17:47:19.959Z,16.60
2022-10-15T17:52:47.795Z,16.50
2022-10-15T17:58:16.842Z,16.50
2022-10-15T18:03:44.824Z,16.50
2022-10-15T18:09:12.808Z,16.40
2022-10-15T18:14:40.795Z,16.40
2022-10-15T18:20:09.133Z,16.30
2022-10-15T18:25:37.721Z,16.30
2022-10-15T18:31:07.948Z,16.20
2022-10-15T18:36:35.933Z,16.10
2022-10-15T18:42:04.030Z,16.10
2022-10-15T18:47:32.206Z,16.00
2022-10-15T18:53:03.166Z,15.90
2022-10-15T18:58:31.267Z,15.90
2022-10-15T19:04:06.323Z,15.80
2022-10-15T19:09:34.708Z,15.80
2022-10-15T19:15:02.511Z,15.80
2022-10-15T19:20:30.490Z,15.80
2022-10-15T19:26:00.614Z,15.70
2022-10-15T19:31:34.715Z,15.70
2022-10-15T19:37:03.157Z,15.70
2022-10-15T19:42:31.652Z,15.70
2022-10-15T19:48:02.322Z,15.60
2022-10-15T19:53:31.825Z,15.60
2022-10-15T19:59:02.753Z,15.60
2022-10-15T20:04:30.579Z,15.60
2022-10-15T20:09:58.467Z,15.60
2022-10-15T20:15:26.423Z,15.60
2022-10-15T20:20:55.339Z,15.60
2022-10-15T20:26:23.974Z,15.50
2022-10-15T20:31:54.155Z,15.50
2022-10-15T20:37:23.980Z,15.50
2022-10-15T20:42:51.713Z,15.50
2022-10-15T20:48:23.221Z,15.50
2022-10-15T20:53:52.829Z,15.40
2022-10-15T20:59:20.617Z,15.30
2022-10-15T21:04:50.725Z,15.30
2022-10-15T21:10:18.541Z,15.20
2022-10-15T21:15:49.151Z,15.20
2022-10-15T21:21:17.858Z,15.10
2022-10-15T21:26:45.728Z,15.00
2022-10-15T21:32:13.582Z,14.90
2022-10-15T21:37:41.633Z,14.90
2022-10-15T21:43:09.408Z,14.80
2022-10-15T21:48:38.520Z,14.70
2022-10-15T21:54:08.174Z,14.70
2022-10-15T21:59:36.157Z,14.60
2022-10-15T22:05:07.347Z,14.50
2022-10-15T22:10:36.752Z,14.50
2022-10-15T22:16:05.433Z,14.40
2022-10-15T22:21:36.511Z,14.30
2022-10-15T22:27:04.389Z,14.30
2022-10-15T22:32:32.163Z,14.20
2022-10-15T22:38:00.077Z,14.20
2022-10-15T22:43:27.976Z,14.10
2022-10-15T22:48:55.783Z,14.10
2022-10-15T22:54:23.786Z,14.00
2022-10-15T22:59:55.864Z,14.00
2022-10-15T23:05:26.464Z,13.90
2022-10-15T23:10:54.200Z,13.90
2022-10-15T23:16:28.044Z,13.80
2022-10-15T23:21:56.802Z,13.70
2022-10-15T23:27:24.870Z,13.70
2022-10-15T23:32:52.836Z,13.60
2022-10-15T23:38:20.726Z,13.60
2022-10-15T23:43:48.575Z,13.50
2022-10-15T23:49:17.417Z,13.50
2022-10-15T23:54:45.172Z,13.40
